sensor_id;sensor_type;location;lat;lon;timestamp;P1;durP1;ratioP1;P2;durP2;ratioP2
54458;SDS011;40368;49.350;8.152;2024-03-08T00:00:46;64;;;118;;
54458;SDS011;40368;49.350;8.152;2024-03-08T00:01:46;95;;;180;;
54458;SDS011;40368;49.350;8.152;2024-03-08T00:02:46;87;;;178;;
54458;SDS011;40368;49.350;8.152;2024-03-08T00:03:46;82;;;160;;
54458;SDS011;40368;49.350;8.152;2024-03-08T00:04:46;60;;;115;;
54458;SDS011;40368;49.350;8.152;2024-03-08T00:05:46;64;;;121;;
54458;SDS011;40368;49.350;8.152;2024-03-08T00:06:46;91;;;180;;
54458;SDS011;40368;49.350;8.152;2024-03-08T00:07:46;109;;;211;;
54458;SDS011;40368;49.350;8.152;2024-03-08T00:08:46;91;;;166;;
54458;SDS011;40368;49.350;8.152;2024-03-08T00:09:46;105;;;199;;
54458;SDS011;40368;49.350;8.152;2024-03-08T00:10:46;100;;;180;;
54458;SDS011;40368;49.350;8.152;2024-03-08T00:11:46;102;;;197;;
54458;SDS011;40368;49.350;8.152;2024-03-08T00:12:46;104;;;220;;
54458;SDS011;40368;49.350;8.152;2024-03-08T00:13:46;108;;;200;;
54458;SDS011;40368;49.350;8.152;2024-03-08T00:14:46;104;;;193;;
54458;SDS011;40368;49.350;8.152;2024-03-08T00:15:46;94;;;169;;
54458;SDS011;40368;49.350;8.152;2024-03-08T00:16:46;81;;;154;;
54458;SDS011;40368;49.350;8.152;2024-03-08T00:17:46;63;;;112;;
54458;SDS011;40368;49.350;8.152;2024-03-08T00:18:46;47;;;85;;
54458;SDS011;40368;49.350;8.152;2024-03-08T00:19:46;104;;;213;;
54458;SDS011;40368;49.350;8.152;2024-03-08T00:20:46;102;;;203;;
54458;SDS011;40368;49.350;8.152;2024-03-08T00:21:46;92;;;172;;
54458;SDS011;40368;49.350;8.152;2024-03-08T00:22:46;95;;;196;;
54458;SDS011;40368;49.350;8.152;2024-03-08T00:23:46;104;;;210;;
54458;SDS011;40368;49.350;8.152;2024-03-08T00:24:46;99;;;203;;
54458;SDS011;40368;49.350;8.152;2024-03-08T00:25:46;105;;;193;;
54458;SDS011;40368;49.350;8.152;2024-03-08T00:26:46;103;;;226;;
54458;SDS011;40368;49.350;8.152;2024-03-08T00:27:46;73;;;146;;
54458;SDS011;40368;49.350;8.152;2024-03-08T00:28:46;108;;;206;;
54458;SDS011;40368;49.350;8.152;2024-03-08T00:29:46;101;;;212;;
54458;SDS011;40368;49.350;8.152;2024-03-08T00:30:46;102;;;196;;
54458;SDS011;40368;49.350;8.152;2024-03-08T00:31:46;106;;;203;;
54458;SDS011;40368;49.350;8.152;2024-03-08T00:32:46;93;;;175;;
54458;SDS011;40368;49.350;8.152;2024-03-08T00:33:46;108;;;225;;
54458;SDS011;40368;49.350;8.152;2024-03-08T00:34:46;107;;;209;;
54458;SDS011;40368;49.350;8.152;2024-03-08T00:35:46;108;;;208;;
54458;SDS011;40368;49.350;8.152;2024-03-08T00:36:46;104;;;218;;
54458;SDS011;40368;49.350;8.152;2024-03-08T00:37:46;93;;;179;;
54458;SDS011;40368;49.350;8.152;2024-03-08T00:38:46;104;;;198;;
54458;SDS011;40368;49.350;8.152;2024-03-08T00:39:46;107;;;208;;
54458;SDS011;40368;49.350;8.152;2024-03-08T00:40:46;105;;;209;;
54458;SDS011;40368;49.350;8.152;2024-03-08T00:41:46;80;;;155;;
54458;SDS011;40368;49.350;8.152;2024-03-08T00:42:46;99;;;218;;
54458;SDS011;40368;49.350;8.152;2024-03-08T00:43:46;100;;;203;;
54458;SDS011;40368;49.350;8.152;2024-03-08T00:44:46;109;;;210;;
54458;SDS011;40368;49.350;8.152;2024-03-08T00:45:46;106;;;223;;
54458;SDS011;40368;49.350;8.152;2024-03-08T00:46:46;102;;;206;;
54458;SDS011;40368;49.350;8.152;2024-03-08T00:47:46;101;;;198;;
54458;SDS011;40368;49.350;8.152;2024-03-08T00:48:46;100;;;211;;
54458;SDS011;40368;49.350;8.152;2024-03-08T00:49:46;107;;;200;;
54458;SDS011;40368;49.350;8.152;2024-03-08T00:50:46;104;;;217;;
54458;SDS011;40368;49.350;8.152;2024-03-08T00:51:46;107;;;193;;
54458;SDS011;40368;49.350;8.152;2024-03-08T00:52:46;106;;;201;;
54458;SDS011;40368;49.350;8.152;2024-03-08T00:53:46;105;;;197;;
54458;SDS011;40368;49.350;8.152;2024-03-08T00:54:46;104;;;200;;
54458;SDS011;40368;49.350;8.152;2024-03-08T00:55:47;99;;;200;;
54458;SDS011;40368;49.350;8.152;2024-03-08T00:57:46;96;;;183;;
54458;SDS011;40368;49.350;8.152;2024-03-08T00:58:46;107;;;204;;
54458;SDS011;40368;49.350;8.152;2024-03-08T00:59:46;103;;;188;;
54458;SDS011;40368;49.350;8.152;2024-03-08T01:00:46;107;;;193;;
54458;SDS011;40368;49.350;8.152;2024-03-08T01:01:46;104;;;199;;
54458;SDS011;40368;49.350;8.152;2024-03-08T01:02:46;106;;;207;;
54458;SDS011;40368;49.350;8.152;2024-03-08T01:03:46;107;;;205;;
54458;SDS011;40368;49.350;8.152;2024-03-08T01:05:46;91;;;198;;
54458;SDS011;40368;49.350;8.152;2024-03-08T01:06:46;97;;;181;;
54458;SDS011;40368;49.350;8.152;2024-03-08T01:07:46;112;;;207;;
54458;SDS011;40368;49.350;8.152;2024-03-08T01:08:46;105;;;195;;
54458;SDS011;40368;49.350;8.152;2024-03-08T01:09:46;106;;;207;;
54458;SDS011;40368;49.350;8.152;2024-03-08T01:10:46;106;;;201;;
54458;SDS011;40368;49.350;8.152;2024-03-08T01:11:46;106;;;213;;
54458;SDS011;40368;49.350;8.152;2024-03-08T01:12:46;106;;;207;;
54458;SDS011;40368;49.350;8.152;2024-03-08T01:13:46;103;;;204;;
54458;SDS011;40368;49.350;8.152;2024-03-08T01:14:46;108;;;226;;
54458;SDS011;40368;49.350;8.152;2024-03-08T01:15:46;101;;;193;;
54458;SDS011;40368;49.350;8.152;2024-03-08T01:16:46;104;;;202;;
54458;SDS011;40368;49.350;8.152;2024-03-08T01:17:46;104;;;198;;
54458;SDS011;40368;49.350;8.152;2024-03-08T01:18:46;105;;;212;;
54458;SDS011;40368;49.350;8.152;2024-03-08T01:19:46;103;;;207;;
54458;SDS011;40368;49.350;8.152;2024-03-08T01:20:46;104;;;194;;
54458;SDS011;40368;49.350;8.152;2024-03-08T01:21:46;101;;;202;;
54458;SDS011;40368;49.350;8.152;2024-03-08T01:22:46;108;;;200;;
54458;SDS011;40368;49.350;8.152;2024-03-08T01:23:46;108;;;209;;
54458;SDS011;40368;49.350;8.152;2024-03-08T01:24:46;106;;;208;;
54458;SDS011;40368;49.350;8.152;2024-03-08T01:25:46;111;;;201;;
54458;SDS011;40368;49.350;8.152;2024-03-08T01:26:46;105;;;204;;
54458;SDS011;40368;49.350;8.152;2024-03-08T01:27:46;107;;;213;;
54458;SDS011;40368;49.350;8.152;2024-03-08T01:28:46;103;;;190;;
54458;SDS011;40368;49.350;8.152;2024-03-08T01:29:46;113;;;218;;
54458;SDS011;40368;49.350;8.152;2024-03-08T01:30:46;114;;;219;;
54458;SDS011;40368;49.350;8.152;2024-03-08T01:31:46;107;;;193;;
54458;SDS011;40368;49.350;8.152;2024-03-08T01:32:46;102;;;192;;
54458;SDS011;40368;49.350;8.152;2024-03-08T01:33:46;107;;;219;;
54458;SDS011;40368;49.350;8.152;2024-03-08T01:34:46;107;;;239;;
54458;SDS011;40368;49.350;8.152;2024-03-08T01:35:46;105;;;205;;
54458;SDS011;40368;49.350;8.152;2024-03-08T01:36:46;105;;;205;;
54458;SDS011;40368;49.350;8.152;2024-03-08T01:37:46;97;;;188;;
54458;SDS011;40368;49.350;8.152;2024-03-08T01:38:46;113;;;233;;
54458;SDS011;40368;49.350;8.152;2024-03-08T01:39:46;105;;;206;;
54458;SDS011;40368;49.350;8.152;2024-03-08T01:40:46;106;;;236;;
54458;SDS011;40368;49.350;8.152;2024-03-08T01:41:46;109;;;233;;
54458;SDS011;40368;49.350;8.152;2024-03-08T01:42:46;107;;;208;;
54458;SDS011;40368;49.350;8.152;2024-03-08T01:43:46;114;;;238;;
54458;SDS011;40368;49.350;8.152;2024-03-08T01:44:46;100;;;200;;
54458;SDS011;40368;49.350;8.152;2024-03-08T01:45:46;104;;;218;;
54458;SDS011;40368;49.350;8.152;2024-03-08T01:46:47;102;;;206;;
54458;SDS011;40368;49.350;8.152;2024-03-08T01:47:53;105;;;202;;
54458;SDS011;40368;49.350;8.152;2024-03-08T01:48:47;102;;;204;;
54458;SDS011;40368;49.350;8.152;2024-03-08T01:49:47;105;;;225;;
54458;SDS011;40368;49.350;8.152;2024-03-08T01:50:46;105;;;216;;
54458;SDS011;40368;49.350;8.152;2024-03-08T01:51:46;101;;;194;;
54458;SDS011;40368;49.350;8.152;2024-03-08T01:52:46;106;;;209;;
54458;SDS011;40368;49.350;8.152;2024-03-08T01:53:48;106;;;213;;
54458;SDS011;40368;49.350;8.152;2024-03-08T01:54:48;106;;;208;;
54458;SDS011;40368;49.350;8.152;2024-03-08T01:55:46;101;;;214;;
54458;SDS011;40368;49.350;8.152;2024-03-08T01:56:46;110;;;238;;
54458;SDS011;40368;49.350;8.152;2024-03-08T01:57:46;103;;;206;;
54458;SDS011;40368;49.350;8.152;2024-03-08T01:58:46;103;;;216;;
54458;SDS011;40368;49.350;8.152;2024-03-08T01:59:46;103;;;190;;
54458;SDS011;40368;49.350;8.152;2024-03-08T02:00:46;101;;;216;;
54458;SDS011;40368;49.350;8.152;2024-03-08T02:01:46;99;;;224;;
54458;SDS011;40368;49.350;8.152;2024-03-08T02:02:46;106;;;213;;
54458;SDS011;40368;49.350;8.152;2024-03-08T02:03:46;110;;;222;;
54458;SDS011;40368;49.350;8.152;2024-03-08T02:04:46;107;;;202;;
54458;SDS011;40368;49.350;8.152;2024-03-08T02:05:46;102;;;198;;
54458;SDS011;40368;49.350;8.152;2024-03-08T02:06:46;100;;;206;;
54458;SDS011;40368;49.350;8.152;2024-03-08T02:07:46;111;;;200;;
54458;SDS011;40368;49.350;8.152;2024-03-08T02:08:46;102;;;199;;
54458;SDS011;40368;49.350;8.152;2024-03-08T02:09:46;107;;;217;;
54458;SDS011;40368;49.350;8.152;2024-03-08T02:10:46;107;;;213;;
54458;SDS011;40368;49.350;8.152;2024-03-08T02:11:46;110;;;211;;
54458;SDS011;40368;49.350;8.152;2024-03-08T02:12:46;111;;;209;;
54458;SDS011;40368;49.350;8.152;2024-03-08T02:13:46;112;;;224;;
54458;SDS011;40368;49.350;8.152;2024-03-08T02:14:46;104;;;215;;
54458;SDS011;40368;49.350;8.152;2024-03-08T02:15:53;105;;;205;;
54458;SDS011;40368;49.350;8.152;2024-03-08T02:16:46;97;;;195;;
54458;SDS011;40368;49.350;8.152;2024-03-08T02:17:46;105;;;208;;
54458;SDS011;40368;49.350;8.152;2024-03-08T02:18:46;101;;;194;;
54458;SDS011;40368;49.350;8.152;2024-03-08T02:19:46;105;;;222;;
54458;SDS011;40368;49.350;8.152;2024-03-08T02:20:46;114;;;217;;
54458;SDS011;40368;49.350;8.152;2024-03-08T02:21:46;102;;;211;;
54458;SDS011;40368;49.350;8.152;2024-03-08T02:22:46;100;;;190;;
54458;SDS011;40368;49.350;8.152;2024-03-08T02:23:46;106;;;212;;
54458;SDS011;40368;49.350;8.152;2024-03-08T02:24:46;110;;;215;;
54458;SDS011;40368;49.350;8.152;2024-03-08T02:25:46;100;;;193;;
54458;SDS011;40368;49.350;8.152;2024-03-08T02:26:46;105;;;210;;
54458;SDS011;40368;49.350;8.152;2024-03-08T02:27:46;96;;;199;;
54458;SDS011;40368;49.350;8.152;2024-03-08T02:28:46;107;;;229;;
54458;SDS011;40368;49.350;8.152;2024-03-08T02:29:46;101;;;196;;
54458;SDS011;40368;49.350;8.152;2024-03-08T02:30:46;103;;;204;;
54458;SDS011;40368;49.350;8.152;2024-03-08T02:31:46;109;;;204;;
54458;SDS011;40368;49.350;8.152;2024-03-08T02:32:46;100;;;221;;
54458;SDS011;40368;49.350;8.152;2024-03-08T02:33:46;102;;;201;;
54458;SDS011;40368;49.350;8.152;2024-03-08T02:34:46;104;;;197;;
54458;SDS011;40368;49.350;8.152;2024-03-08T02:35:46;98;;;220;;
54458;SDS011;40368;49.350;8.152;2024-03-08T02:36:46;107;;;226;;
54458;SDS011;40368;49.350;8.152;2024-03-08T02:37:46;110;;;212;;
54458;SDS011;40368;49.350;8.152;2024-03-08T02:38:46;106;;;198;;
54458;SDS011;40368;49.350;8.152;2024-03-08T02:39:46;102;;;211;;
54458;SDS011;40368;49.350;8.152;2024-03-08T02:40:47;100;;;191;;
54458;SDS011;40368;49.350;8.152;2024-03-08T02:41:46;104;;;203;;
54458;SDS011;40368;49.350;8.152;2024-03-08T02:42:46;102;;;209;;
54458;SDS011;40368;49.350;8.152;2024-03-08T02:43:46;111;;;217;;
54458;SDS011;40368;49.350;8.152;2024-03-08T02:44:46;112;;;229;;
54458;SDS011;40368;49.350;8.152;2024-03-08T02:45:46;100;;;198;;
54458;SDS011;40368;49.350;8.152;2024-03-08T02:46:46;105;;;205;;
54458;SDS011;40368;49.350;8.152;2024-03-08T02:47:46;101;;;217;;
54458;SDS011;40368;49.350;8.152;2024-03-08T02:48:46;99;;;209;;
54458;SDS011;40368;49.350;8.152;2024-03-08T02:49:46;107;;;202;;
54458;SDS011;40368;49.350;8.152;2024-03-08T02:50:46;99;;;194;;
54458;SDS011;40368;49.350;8.152;2024-03-08T02:51:46;107;;;226;;
54458;SDS011;40368;49.350;8.152;2024-03-08T02:52:46;104;;;198;;
54458;SDS011;40368;49.350;8.152;2024-03-08T02:53:46;100;;;185;;
54458;SDS011;40368;49.350;8.152;2024-03-08T02:54:46;106;;;248;;
54458;SDS011;40368;49.350;8.152;2024-03-08T02:55:46;103;;;188;;
54458;SDS011;40368;49.350;8.152;2024-03-08T02:56:46;107;;;198;;
54458;SDS011;40368;49.350;8.152;2024-03-08T02:57:46;107;;;229;;
54458;SDS011;40368;49.350;8.152;2024-03-08T02:58:46;101;;;194;;
54458;SDS011;40368;49.350;8.152;2024-03-08T02:59:46;108;;;210;;
54458;SDS011;40368;49.350;8.152;2024-03-08T03:00:46;106;;;216;;
54458;SDS011;40368;49.350;8.152;2024-03-08T03:01:46;104;;;221;;
54458;SDS011;40368;49.350;8.152;2024-03-08T03:02:46;107;;;202;;
54458;SDS011;40368;49.350;8.152;2024-03-08T03:03:46;109;;;218;;
54458;SDS011;40368;49.350;8.152;2024-03-08T03:04:46;110;;;209;;
54458;SDS011;40368;49.350;8.152;2024-03-08T03:05:46;104;;;207;;
54458;SDS011;40368;49.350;8.152;2024-03-08T03:06:46;111;;;208;;
54458;SDS011;40368;49.350;8.152;2024-03-08T03:07:46;117;;;230;;
54458;SDS011;40368;49.350;8.152;2024-03-08T03:08:46;113;;;244;;
54458;SDS011;40368;49.350;8.152;2024-03-08T03:09:46;98;;;199;;
54458;SDS011;40368;49.350;8.152;2024-03-08T03:10:46;107;;;218;;
54458;SDS011;40368;49.350;8.152;2024-03-08T03:11:46;114;;;224;;
54458;SDS011;40368;49.350;8.152;2024-03-08T03:12:46;103;;;208;;
54458;SDS011;40368;49.350;8.152;2024-03-08T03:13:46;105;;;198;;
54458;SDS011;40368;49.350;8.152;2024-03-08T03:14:46;102;;;193;;
54458;SDS011;40368;49.350;8.152;2024-03-08T03:15:46;108;;;218;;
54458;SDS011;40368;49.350;8.152;2024-03-08T03:16:46;104;;;213;;
54458;SDS011;40368;49.350;8.152;2024-03-08T03:17:46;105;;;225;;
54458;SDS011;40368;49.350;8.152;2024-03-08T03:18:46;111;;;239;;
54458;SDS011;40368;49.350;8.152;2024-03-08T03:19:46;110;;;220;;
54458;SDS011;40368;49.350;8.152;2024-03-08T03:20:46;102;;;218;;
54458;SDS011;40368;49.350;8.152;2024-03-08T03:21:46;103;;;192;;
54458;SDS011;40368;49.350;8.152;2024-03-08T03:22:46;107;;;218;;
54458;SDS011;40368;49.350;8.152;2024-03-08T03:23:46;104;;;197;;
54458;SDS011;40368;49.350;8.152;2024-03-08T03:24:46;104;;;214;;
54458;SDS011;40368;49.350;8.152;2024-03-08T03:25:46;114;;;232;;
54458;SDS011;40368;49.350;8.152;2024-03-08T03:26:46;106;;;218;;
54458;SDS011;40368;49.350;8.152;2024-03-08T03:27:46;104;;;203;;
54458;SDS011;40368;49.350;8.152;2024-03-08T03:28:46;107;;;209;;
54458;SDS011;40368;49.350;8.152;2024-03-08T03:29:46;108;;;212;;
54458;SDS011;40368;49.350;8.152;2024-03-08T03:30:46;107;;;209;;
54458;SDS011;40368;49.350;8.152;2024-03-08T03:31:46;110;;;207;;
54458;SDS011;40368;49.350;8.152;2024-03-08T03:32:46;102;;;228;;
54458;SDS011;40368;49.350;8.152;2024-03-08T03:33:46;104;;;204;;
54458;SDS011;40368;49.350;8.152;2024-03-08T03:34:46;106;;;195;;
54458;SDS011;40368;49.350;8.152;2024-03-08T03:35:46;101;;;208;;
54458;SDS011;40368;49.350;8.152;2024-03-08T03:36:46;111;;;207;;
54458;SDS011;40368;49.350;8.152;2024-03-08T03:37:46;105;;;188;;
54458;SDS011;40368;49.350;8.152;2024-03-08T03:38:46;106;;;211;;
54458;SDS011;40368;49.350;8.152;2024-03-08T03:39:46;110;;;222;;
54458;SDS011;40368;49.350;8.152;2024-03-08T03:40:46;107;;;196;;
54458;SDS011;40368;49.350;8.152;2024-03-08T03:41:46;107;;;222;;
54458;SDS011;40368;49.350;8.152;2024-03-08T03:42:46;108;;;203;;
54458;SDS011;40368;49.350;8.152;2024-03-08T03:43:46;110;;;209;;
54458;SDS011;40368;49.350;8.152;2024-03-08T03:44:46;106;;;229;;
54458;SDS011;40368;49.350;8.152;2024-03-08T03:45:46;103;;;202;;
54458;SDS011;40368;49.350;8.152;2024-03-08T03:46:46;110;;;224;;
54458;SDS011;40368;49.350;8.152;2024-03-08T03:47:46;103;;;198;;
54458;SDS011;40368;49.350;8.152;2024-03-08T03:48:46;107;;;206;;
54458;SDS011;40368;49.350;8.152;2024-03-08T03:49:46;109;;;224;;
54458;SDS011;40368;49.350;8.152;2024-03-08T03:51:46;106;;;207;;
54458;SDS011;40368;49.350;8.152;2024-03-08T03:52:46;102;;;213;;
54458;SDS011;40368;49.350;8.152;2024-03-08T03:53:46;103;;;205;;
54458;SDS011;40368;49.350;8.152;2024-03-08T03:54:46;109;;;212;;
54458;SDS011;40368;49.350;8.152;2024-03-08T03:55:46;110;;;217;;
54458;SDS011;40368;49.350;8.152;2024-03-08T03:56:46;112;;;232;;
54458;SDS011;40368;49.350;8.152;2024-03-08T03:57:46;110;;;217;;
54458;SDS011;40368;49.350;8.152;2024-03-08T03:58:46;106;;;214;;
54458;SDS011;40368;49.350;8.152;2024-03-08T03:59:46;110;;;213;;
54458;SDS011;40368;49.350;8.152;2024-03-08T04:00:46;111;;;219;;
54458;SDS011;40368;49.350;8.152;2024-03-08T04:01:46;107;;;199;;
54458;SDS011;40368;49.350;8.152;2024-03-08T04:02:46;104;;;201;;
54458;SDS011;40368;49.350;8.152;2024-03-08T04:03:46;105;;;199;;
54458;SDS011;40368;49.350;8.152;2024-03-08T04:04:46;106;;;213;;
54458;SDS011;40368;49.350;8.152;2024-03-08T04:05:46;109;;;225;;
54458;SDS011;40368;49.350;8.152;2024-03-08T04:06:46;106;;;222;;
54458;SDS011;40368;49.350;8.152;2024-03-08T04:07:46;113;;;233;;
54458;SDS011;40368;49.350;8.152;2024-03-08T04:08:46;102;;;214;;
54458;SDS011;40368;49.350;8.152;2024-03-08T04:09:46;108;;;219;;
54458;SDS011;40368;49.350;8.152;2024-03-08T04:10:46;101;;;206;;
54458;SDS011;40368;49.350;8.152;2024-03-08T04:11:46;108;;;214;;
54458;SDS011;40368;49.350;8.152;2024-03-08T04:12:46;97;;;192;;
54458;SDS011;40368;49.350;8.152;2024-03-08T04:13:46;98;;;207;;
54458;SDS011;40368;49.350;8.152;2024-03-08T04:14:46;105;;;200;;
54458;SDS011;40368;49.350;8.152;2024-03-08T04:15:46;112;;;218;;
54458;SDS011;40368;49.350;8.152;2024-03-08T04:16:46;112;;;223;;
54458;SDS011;40368;49.350;8.152;2024-03-08T04:17:46;110;;;236;;
54458;SDS011;40368;49.350;8.152;2024-03-08T04:18:46;110;;;215;;
54458;SDS011;40368;49.350;8.152;2024-03-08T04:19:46;112;;;225;;
54458;SDS011;40368;49.350;8.152;2024-03-08T04:20:46;107;;;209;;
54458;SDS011;40368;49.350;8.152;2024-03-08T04:21:46;102;;;192;;
54458;SDS011;40368;49.350;8.152;2024-03-08T04:22:46;113;;;222;;
54458;SDS011;40368;49.350;8.152;2024-03-08T04:23:46;108;;;225;;
54458;SDS011;40368;49.350;8.152;2024-03-08T04:24:46;111;;;237;;
54458;SDS011;40368;49.350;8.152;2024-03-08T04:25:46;112;;;226;;
54458;SDS011;40368;49.350;8.152;2024-03-08T04:26:46;115;;;232;;
54458;SDS011;40368;49.350;8.152;2024-03-08T04:27:46;112;;;217;;
54458;SDS011;40368;49.350;8.152;2024-03-08T04:28:46;111;;;228;;
54458;SDS011;40368;49.350;8.152;2024-03-08T04:29:46;108;;;217;;
54458;SDS011;40368;49.350;8.152;2024-03-08T04:30:46;117;;;242;;
54458;SDS011;40368;49.350;8.152;2024-03-08T04:31:46;112;;;221;;
54458;SDS011;40368;49.350;8.152;2024-03-08T04:32:46;105;;;215;;
54458;SDS011;40368;49.350;8.152;2024-03-08T04:33:46;112;;;233;;
54458;SDS011;40368;49.350;8.152;2024-03-08T04:34:46;112;;;219;;
54458;SDS011;40368;49.350;8.152;2024-03-08T04:35:46;109;;;202;;
54458;SDS011;40368;49.350;8.152;2024-03-08T04:36:46;113;;;211;;
54458;SDS011;40368;49.350;8.152;2024-03-08T04:37:46;110;;;212;;
54458;SDS011;40368;49.350;8.152;2024-03-08T04:38:46;107;;;204;;
54458;SDS011;40368;49.350;8.152;2024-03-08T04:39:46;107;;;226;;
54458;SDS011;40368;49.350;8.152;2024-03-08T04:40:46;108;;;222;;
54458;SDS011;40368;49.350;8.152;2024-03-08T04:41:46;108;;;209;;
54458;SDS011;40368;49.350;8.152;2024-03-08T04:42:46;116;;;237;;
54458;SDS011;40368;49.350;8.152;2024-03-08T04:43:46;107;;;197;;
54458;SDS011;40368;49.350;8.152;2024-03-08T04:44:46;108;;;209;;
54458;SDS011;40368;49.350;8.152;2024-03-08T04:45:46;105;;;207;;
54458;SDS011;40368;49.350;8.152;2024-03-08T04:46:46;105;;;200;;
54458;SDS011;40368;49.350;8.152;2024-03-08T04:47:46;109;;;224;;
54458;SDS011;40368;49.350;8.152;2024-03-08T04:48:46;119;;;235;;
54458;SDS011;40368;49.350;8.152;2024-03-08T04:49:46;108;;;211;;
54458;SDS011;40368;49.350;8.152;2024-03-08T04:50:46;103;;;202;;
54458;SDS011;40368;49.350;8.152;2024-03-08T04:51:46;104;;;203;;
54458;SDS011;40368;49.350;8.152;2024-03-08T04:52:46;107;;;223;;
54458;SDS011;40368;49.350;8.152;2024-03-08T04:53:46;111;;;220;;
54458;SDS011;40368;49.350;8.152;2024-03-08T04:54:46;110;;;214;;
54458;SDS011;40368;49.350;8.152;2024-03-08T04:55:46;97;;;200;;
54458;SDS011;40368;49.350;8.152;2024-03-08T04:56:46;108;;;213;;
54458;SDS011;40368;49.350;8.152;2024-03-08T04:57:46;107;;;211;;
54458;SDS011;40368;49.350;8.152;2024-03-08T04:58:46;111;;;228;;
54458;SDS011;40368;49.350;8.152;2024-03-08T04:59:46;108;;;203;;
54458;SDS011;40368;49.350;8.152;2024-03-08T05:00:46;110;;;219;;
54458;SDS011;40368;49.350;8.152;2024-03-08T05:01:46;107;;;225;;
54458;SDS011;40368;49.350;8.152;2024-03-08T05:02:46;114;;;241;;
54458;SDS011;40368;49.350;8.152;2024-03-08T05:03:46;112;;;229;;
54458;SDS011;40368;49.350;8.152;2024-03-08T05:04:46;116;;;226;;
54458;SDS011;40368;49.350;8.152;2024-03-08T05:05:46;110;;;219;;
54458;SDS011;40368;49.350;8.152;2024-03-08T05:06:46;106;;;221;;
54458;SDS011;40368;49.350;8.152;2024-03-08T05:07:46;113;;;230;;
54458;SDS011;40368;49.350;8.152;2024-03-08T05:08:46;112;;;215;;
54458;SDS011;40368;49.350;8.152;2024-03-08T05:09:46;110;;;202;;
54458;SDS011;40368;49.350;8.152;2024-03-08T05:10:46;118;;;250;;
54458;SDS011;40368;49.350;8.152;2024-03-08T05:11:46;110;;;212;;
54458;SDS011;40368;49.350;8.152;2024-03-08T05:12:46;114;;;225;;
54458;SDS011;40368;49.350;8.152;2024-03-08T05:13:46;113;;;225;;
54458;SDS011;40368;49.350;8.152;2024-03-08T05:14:46;117;;;227;;
54458;SDS011;40368;49.350;8.152;2024-03-08T05:15:47;107;;;202;;
54458;SDS011;40368;49.350;8.152;2024-03-08T05:16:46;108;;;216;;
54458;SDS011;40368;49.350;8.152;2024-03-08T05:17:46;107;;;226;;
54458;SDS011;40368;49.350;8.152;2024-03-08T05:18:46;108;;;215;;
54458;SDS011;40368;49.350;8.152;2024-03-08T05:19:46;107;;;209;;
54458;SDS011;40368;49.350;8.152;2024-03-08T05:20:46;106;;;206;;
54458;SDS011;40368;49.350;8.152;2024-03-08T05:21:46;104;;;226;;
54458;SDS011;40368;49.350;8.152;2024-03-08T05:22:46;111;;;205;;
54458;SDS011;40368;49.350;8.152;2024-03-08T05:23:46;106;;;212;;
54458;SDS011;40368;49.350;8.152;2024-03-08T05:24:46;109;;;227;;
54458;SDS011;40368;49.350;8.152;2024-03-08T05:25:46;112;;;198;;
54458;SDS011;40368;49.350;8.152;2024-03-08T05:26:46;109;;;216;;
54458;SDS011;40368;49.350;8.152;2024-03-08T05:27:46;109;;;216;;
54458;SDS011;40368;49.350;8.152;2024-03-08T05:28:46;113;;;222;;
54458;SDS011;40368;49.350;8.152;2024-03-08T05:29:46;101;;;211;;
54458;SDS011;40368;49.350;8.152;2024-03-08T05:30:46;108;;;204;;
54458;SDS011;40368;49.350;8.152;2024-03-08T05:31:47;103;;;213;;
54458;SDS011;40368;49.350;8.152;2024-03-08T05:32:46;103;;;217;;
54458;SDS011;40368;49.350;8.152;2024-03-08T05:33:46;107;;;197;;
54458;SDS011;40368;49.350;8.152;2024-03-08T05:34:46;108;;;207;;
54458;SDS011;40368;49.350;8.152;2024-03-08T05:35:46;108;;;206;;
54458;SDS011;40368;49.350;8.152;2024-03-08T05:36:46;114;;;234;;
54458;SDS011;40368;49.350;8.152;2024-03-08T05:37:46;115;;;235;;
54458;SDS011;40368;49.350;8.152;2024-03-08T05:38:46;112;;;232;;
54458;SDS011;40368;49.350;8.152;2024-03-08T05:39:46;113;;;242;;
54458;SDS011;40368;49.350;8.152;2024-03-08T05:40:46;113;;;249;;
54458;SDS011;40368;49.350;8.152;2024-03-08T05:41:46;112;;;216;;
54458;SDS011;40368;49.350;8.152;2024-03-08T05:42:46;115;;;239;;
54458;SDS011;40368;49.350;8.152;2024-03-08T05:43:46;120;;;250;;
54458;SDS011;40368;49.350;8.152;2024-03-08T05:44:46;111;;;232;;
54458;SDS011;40368;49.350;8.152;2024-03-08T05:45:46;117;;;240;;
54458;SDS011;40368;49.350;8.152;2024-03-08T05:46:46;112;;;226;;
54458;SDS011;40368;49.350;8.152;2024-03-08T05:47:46;114;;;230;;
54458;SDS011;40368;49.350;8.152;2024-03-08T05:48:46;109;;;217;;
54458;SDS011;40368;49.350;8.152;2024-03-08T05:49:46;106;;;196;;
54458;SDS011;40368;49.350;8.152;2024-03-08T05:50:46;113;;;236;;
54458;SDS011;40368;49.350;8.152;2024-03-08T05:51:46;118;;;240;;
54458;SDS011;40368;49.350;8.152;2024-03-08T05:52:46;108;;;216;;
54458;SDS011;40368;49.350;8.152;2024-03-08T05:53:46;114;;;227;;
54458;SDS011;40368;49.350;8.152;2024-03-08T05:54:46;114;;;214;;
54458;SDS011;40368;49.350;8.152;2024-03-08T05:55:46;111;;;226;;
54458;SDS011;40368;49.350;8.152;2024-03-08T05:56:46;107;;;220;;
54458;SDS011;40368;49.350;8.152;2024-03-08T05:57:46;111;;;235;;
54458;SDS011;40368;49.350;8.152;2024-03-08T05:58:46;108;;;213;;
54458;SDS011;40368;49.350;8.152;2024-03-08T05:59:46;110;;;220;;
54458;SDS011;40368;49.350;8.152;2024-03-08T06:00:46;104;;;226;;
54458;SDS011;40368;49.350;8.152;2024-03-08T06:01:46;109;;;217;;
54458;SDS011;40368;49.350;8.152;2024-03-08T06:02:46;121;;;248;;
54458;SDS011;40368;49.350;8.152;2024-03-08T06:03:46;108;;;209;;
54458;SDS011;40368;49.350;8.152;2024-03-08T06:04:46;121;;;241;;
54458;SDS011;40368;49.350;8.152;2024-03-08T06:05:46;116;;;228;;
54458;SDS011;40368;49.350;8.152;2024-03-08T06:06:46;118;;;240;;
54458;SDS011;40368;49.350;8.152;2024-03-08T06:07:46;119;;;234;;
54458;SDS011;40368;49.350;8.152;2024-03-08T06:08:46;130;;;250;;
54458;SDS011;40368;49.350;8.152;2024-03-08T06:09:46;128;;;246;;
54458;SDS011;40368;49.350;8.152;2024-03-08T06:10:46;123;;;240;;
54458;SDS011;40368;49.350;8.152;2024-03-08T06:11:46;125;;;247;;
54458;SDS011;40368;49.350;8.152;2024-03-08T06:12:46;128;;;246;;
54458;SDS011;40368;49.350;8.152;2024-03-08T06:13:46;118;;;231;;
54458;SDS011;40368;49.350;8.152;2024-03-08T06:14:46;119;;;217;;
54458;SDS011;40368;49.350;8.152;2024-03-08T06:15:46;120;;;243;;
54458;SDS011;40368;49.350;8.152;2024-03-08T06:16:46;125;;;245;;